sensor_id;sensor_type;location;lat;lon;timestamp;P1;durP1;ratioP1;P2;durP2;ratioP2
68225;SDS011;55045;49.410;11.030;2022-10-03T00:04:24;37.53;;;16.40;;
68225;SDS011;55045;49.410;11.030;2022-10-03T00:07:51;38.85;;;17.13;;
68225;SDS011;55045;49.410;11.030;2022-10-03T00:11:08;31.25;;;13.98;;
68225;SDS011;55045;49.410;11.030;2022-10-03T00:14:27;42.00;;;15.48;;
68225;SDS011;55045;49.410;11.030;2022-10-03T00:17:40;37.60;;;16.45;;
68225;SDS011;55045;49.410;11.030;2022-10-03T00:20:58;35.28;;;15.85;;
68225;SDS011;55045;49.410;11.030;2022-10-03T00:24:12;44.83;;;15.93;;
68225;SDS011;55045;49.410;11.030;2022-10-03T00:27:26;39.72;;;16.20;;
68225;SDS011;55045;49.410;11.030;2022-10-03T00:30:44;40.63;;;16.10;;
68225;SDS011;55045;49.410;11.030;2022-10-03T00:34:07;43.38;;;17.58;;
68225;SDS011;55045;49.410;11.030;2022-10-03T00:37:27;42.55;;;17.13;;
68225;SDS011;55045;49.410;11.030;2022-10-03T00:40:56;44.17;;;16.70;;
68225;SDS011;55045;49.410;11.030;2022-10-03T00:48:07;38.75;;;16.08;;
68225;SDS011;55045;49.410;11.030;2022-10-03T00:51:30;47.13;;;16.13;;
68225;SDS011;55045;49.410;11.030;2022-10-03T00:54:53;38.72;;;16.00;;
68225;SDS011;55045;49.410;11.030;2022-10-03T00:58:15;37.97;;;17.23;;
68225;SDS011;55045;49.410;11.030;2022-10-03T01:01:35;49.10;;;17.33;;
68225;SDS011;55045;49.410;11.030;2022-10-03T01:04:47;47.25;;;18.20;;
68225;SDS011;55045;49.410;11.030;2022-10-03T01:08:02;48.60;;;16.50;;
68225;SDS011;55045;49.410;11.030;2022-10-03T01:11:24;60.55;;;18.85;;
68225;SDS011;55045;49.410;11.030;2022-10-03T01:14:42;46.00;;;17.25;;
68225;SDS011;55045;49.410;11.030;2022-10-03T01:18:00;37.75;;;16.20;;
68225;SDS011;55045;49.410;11.030;2022-10-03T01:21:13;38.00;;;16.95;;
68225;SDS011;55045;49.410;11.030;2022-10-03T01:24:37;43.03;;;17.15;;
68225;SDS011;55045;49.410;11.030;2022-10-03T01:27:55;40.22;;;18.27;;
68225;SDS011;55045;49.410;11.030;2022-10-03T01:31:29;40.97;;;17.55;;
68225;SDS011;55045;49.410;11.030;2022-10-03T01:34:41;41.35;;;16.98;;
68225;SDS011;55045;49.410;11.030;2022-10-03T01:37:51;35.70;;;15.23;;
68225;SDS011;55045;49.410;11.030;2022-10-03T01:41:03;51.47;;;17.88;;
68225;SDS011;55045;49.410;11.030;2022-10-03T01:44:15;37.95;;;15.35;;
68225;SDS011;55045;49.410;11.030;2022-10-03T01:47:29;47.58;;;17.10;;
68225;SDS011;55045;49.410;11.030;2022-10-03T01:50:37;32.60;;;15.05;;
68225;SDS011;55045;49.410;11.030;2022-10-03T01:57:19;51.25;;;18.23;;
68225;SDS011;55045;49.410;11.030;2022-10-03T02:00:33;45.72;;;18.05;;
68225;SDS011;55045;49.410;11.030;2022-10-03T02:03:48;42.92;;;15.18;;
68225;SDS011;55045;49.410;11.030;2022-10-03T02:07:01;32.92;;;14.82;;
68225;SDS011;55045;49.410;11.030;2022-10-03T02:10:11;39.65;;;16.73;;
68225;SDS011;55045;49.410;11.030;2022-10-03T02:13:26;46.70;;;18.75;;
68225;SDS011;55045;49.410;11.030;2022-10-03T02:16:35;44.00;;;16.02;;
68225;SDS011;55045;49.410;11.030;2022-10-03T02:19:45;46.33;;;17.38;;
68225;SDS011;55045;49.410;11.030;2022-10-03T02:22:53;43.45;;;16.67;;
68225;SDS011;55045;49.410;11.030;2022-10-03T02:26:02;47.10;;;16.85;;
68225;SDS011;55045;49.410;11.030;2022-10-03T02:36:52;38.33;;;17.85;;
68225;SDS011;55045;49.410;11.030;2022-10-03T02:43:55;40.55;;;16.45;;
68225;SDS011;55045;49.410;11.030;2022-10-03T02:54:59;45.85;;;16.95;;
68225;SDS011;55045;49.410;11.030;2022-10-03T03:02:13;36.90;;;20.05;;
68225;SDS011;55045;49.410;11.030;2022-10-03T03:09:48;42.55;;;20.05;;
68225;SDS011;55045;49.410;11.030;2022-10-03T03:13:10;45.67;;;21.35;;
68225;SDS011;55045;49.410;11.030;2022-10-03T03:16:52;37.60;;;17.52;;
68225;SDS011;55045;49.410;11.030;2022-10-03T03:20:06;38.30;;;19.55;;
68225;SDS011;55045;49.410;11.030;2022-10-03T03:27:04;33.03;;;17.50;;
68225;SDS011;55045;49.410;11.030;2022-10-03T03:30:34;37.92;;;22.00;;
68225;SDS011;55045;49.410;11.030;2022-10-03T03:35:03;40.75;;;19.13;;
68225;SDS011;55045;49.410;11.030;2022-10-03T03:38:19;48.97;;;21.63;;
68225;SDS011;55045;49.410;11.030;2022-10-03T03:45:12;41.55;;;20.42;;
68225;SDS011;55045;49.410;11.030;2022-10-03T03:48:34;55.58;;;23.90;;
68225;SDS011;55045;49.410;11.030;2022-10-03T03:51:55;54.17;;;21.05;;
68225;SDS011;55045;49.410;11.030;2022-10-03T03:55:15;54.40;;;21.83;;
68225;SDS011;55045;49.410;11.030;2022-10-03T03:58:37;51.03;;;21.65;;
68225;SDS011;55045;49.410;11.030;2022-10-03T04:02:03;47.17;;;17.77;;
68225;SDS011;55045;49.410;11.030;2022-10-03T04:05:22;47.15;;;15.90;;
68225;SDS011;55045;49.410;11.030;2022-10-03T04:08:37;47.85;;;19.38;;
68225;SDS011;55045;49.410;11.030;2022-10-03T04:12:01;58.97;;;19.00;;
68225;SDS011;55045;49.410;11.030;2022-10-03T04:15:15;82.22;;;23.33;;
68225;SDS011;55045;49.410;11.030;2022-10-03T04:18:39;65.88;;;22.15;;
68225;SDS011;55045;49.410;11.030;2022-10-03T04:22:13;54.20;;;18.48;;
68225;SDS011;55045;49.410;11.030;2022-10-03T04:29:08;56.17;;;19.80;;
68225;SDS011;55045;49.410;11.030;2022-10-03T04:32:33;60.47;;;20.08;;
68225;SDS011;55045;49.410;11.030;2022-10-03T04:39:28;72.93;;;21.63;;
68225;SDS011;55045;49.410;11.030;2022-10-03T04:42:40;52.00;;;18.42;;
68225;SDS011;55045;49.410;11.030;2022-10-03T04:46:09;36.80;;;15.98;;
68225;SDS011;55045;49.410;11.030;2022-10-03T04:52:29;43.28;;;17.95;;
68225;SDS011;55045;49.410;11.030;2022-10-03T04:55:41;39.63;;;16.70;;
68225;SDS011;55045;49.410;11.030;2022-10-03T04:58:52;43.10;;;18.67;;
68225;SDS011;55045;49.410;11.030;2022-10-03T05:01:59;44.90;;;17.85;;
68225;SDS011;55045;49.410;11.030;2022-10-03T05:08:36;54.35;;;18.17;;
68225;SDS011;55045;49.410;11.030;2022-10-03T05:11:47;49.83;;;19.02;;
68225;SDS011;55045;49.410;11.030;2022-10-03T05:15:04;55.95;;;20.23;;
68225;SDS011;55045;49.410;11.030;2022-10-03T05:18:21;49.45;;;19.08;;
68225;SDS011;55045;49.410;11.030;2022-10-03T05:21:32;53.38;;;19.50;;
68225;SDS011;55045;49.410;11.030;2022-10-03T05:30:57;51.47;;;19.50;;
68225;SDS011;55045;49.410;11.030;2022-10-03T05:34:12;50.42;;;18.10;;
68225;SDS011;55045;49.410;11.030;2022-10-03T05:37:36;43.63;;;18.20;;
68225;SDS011;55045;49.410;11.030;2022-10-03T05:40:59;43.83;;;16.45;;
68225;SDS011;55045;49.410;11.030;2022-10-03T05:44:07;39.55;;;16.80;;
68225;SDS011;55045;49.410;11.030;2022-10-03T05:47:21;41.00;;;16.42;;
68225;SDS011;55045;49.410;11.030;2022-10-03T05:51:04;43.08;;;16.48;;
68225;SDS011;55045;49.410;11.030;2022-10-03T05:54:23;40.17;;;16.38;;
68225;SDS011;55045;49.410;11.030;2022-10-03T05:57:48;50.63;;;17.30;;
68225;SDS011;55045;49.410;11.030;2022-10-03T06:01:22;36.67;;;16.42;;
68225;SDS011;55045;49.410;11.030;2022-10-03T06:12:06;30.20;;;13.90;;
68225;SDS011;55045;49.410;11.030;2022-10-03T06:15:28;68.70;;;18.70;;
68225;SDS011;55045;49.410;11.030;2022-10-03T06:18:47;58.35;;;17.67;;
68225;SDS011;55045;49.410;11.030;2022-10-03T06:26:03;39.53;;;15.68;;
68225;SDS011;55045;49.410;11.030;2022-10-03T06:29:34;53.40;;;20.50;;
68225;SDS011;55045;49.410;11.030;2022-10-03T06:36:43;59.80;;;21.27;;
68225;SDS011;55045;49.410;11.030;2022-10-03T06:43:46;39.80;;;18.90;;
68225;SDS011;55045;49.410;11.030;2022-10-03T06:47:05;52.33;;;21.88;;
68225;SDS011;55045;49.410;11.030;2022-10-03T06:50:26;57.80;;;23.30;;
68225;SDS011;55045;49.410;11.030;2022-10-03T06:53:56;43.05;;;19.20;;
68225;SDS011;55045;49.410;11.030;2022-10-03T06:57:18;35.78;;;16.67;;
68225;SDS011;55045;49.410;11.030;2022-10-03T07:00:44;41.63;;;17.42;;
68225;SDS011;55045;49.410;11.030;2022-10-03T07:04:01;38.65;;;15.07;;
68225;SDS011;55045;49.410;11.030;2022-10-03T07:07:28;36.30;;;15.80;;
68225;SDS011;55045;49.410;11.030;2022-10-03T07:11:20;39.42;;;15.80;;
68225;SDS011;55045;49.410;11.030;2022-10-03T07:36:59;29.05;;;11.10;;
68225;SDS011;55045;49.410;11.030;2022-10-03T07:40:41;28.60;;;12.63;;
68225;SDS011;55045;49.410;11.030;2022-10-03T07:44:12;25.92;;;12.63;;
68225;SDS011;55045;49.410;11.030;2022-10-03T07:51:15;23.80;;;10.80;;
68225;SDS011;55045;49.410;11.030;2022-10-03T07:54:36;23.63;;;11.30;;
68225;SDS011;55045;49.410;11.030;2022-10-03T07:58:16;21.08;;;10.63;;
68225;SDS011;55045;49.410;11.030;2022-10-03T08:01:42;20.45;;;8.45;;
68225;SDS011;55045;49.410;11.030;2022-10-03T08:05:03;18.20;;;10.23;;
68225;SDS011;55045;49.410;11.030;2022-10-03T08:15:50;17.80;;;7.80;;
68225;SDS011;55045;49.410;11.030;2022-10-03T08:19:10;18.67;;;8.05;;
68225;SDS011;55045;49.410;11.030;2022-10-03T08:22:25;18.95;;;7.07;;
68225;SDS011;55045;49.410;11.030;2022-10-03T08:25:45;22.35;;;7.13;;
68225;SDS011;55045;49.410;11.030;2022-10-03T08:29:06;18.85;;;6.72;;
68225;SDS011;55045;49.410;11.030;2022-10-03T08:32:44;15.27;;;6.45;;
68225;SDS011;55045;49.410;11.030;2022-10-03T08:40:02;12.50;;;5.57;;
68225;SDS011;55045;49.410;11.030;2022-10-03T08:43:51;19.02;;;6.47;;
68225;SDS011;55045;49.410;11.030;2022-10-03T08:47:36;12.25;;;5.07;;
68225;SDS011;55045;49.410;11.030;2022-10-03T08:51:07;11.88;;;5.40;;
68225;SDS011;55045;49.410;11.030;2022-10-03T08:54:40;13.00;;;6.05;;
68225;SDS011;55045;49.410;11.030;2022-10-03T08:58:09;12.15;;;5.45;;
68225;SDS011;55045;49.410;11.030;2022-10-03T09:01:28;14.20;;;6.40;;
68225;SDS011;55045;49.410;11.030;2022-10-03T09:08:35;16.38;;;5.93;;
68225;SDS011;55045;49.410;11.030;2022-10-03T09:11:53;11.13;;;5.70;;
68225;SDS011;55045;49.410;11.030;2022-10-03T09:15:23;13.50;;;4.82;;
68225;SDS011;55045;49.410;11.030;2022-10-03T09:19:09;7.82;;;3.97;;
68225;SDS011;55045;49.410;11.030;2022-10-03T09:22:38;7.47;;;3.95;;
68225;SDS011;55045;49.410;11.030;2022-10-03T09:26:01;10.70;;;4.75;;
68225;SDS011;55045;49.410;11.030;2022-10-03T09:35:09;10.05;;;4.68;;
68225;SDS011;55045;49.410;11.030;2022-10-03T09:38:50;8.32;;;4.53;;
68225;SDS011;55045;49.410;11.030;2022-10-03T09:49:45;9.27;;;4.05;;
68225;SDS011;55045;49.410;11.030;2022-10-03T09:53:31;7.28;;;3.70;;
68225;SDS011;55045;49.410;11.030;2022-10-03T09:57:07;11.07;;;4.72;;
68225;SDS011;55045;49.410;11.030;2022-10-03T10:00:25;12.93;;;3.55;;
68225;SDS011;55045;49.410;11.030;2022-10-03T10:08:02;12.23;;;3.45;;
68225;SDS011;55045;49.410;11.030;2022-10-03T10:11:41;12.43;;;2.70;;
68225;SDS011;55045;49.410;11.030;2022-10-03T10:15:08;9.05;;;2.63;;
68225;SDS011;55045;49.410;11.030;2022-10-03T10:18:37;10.00;;;3.05;;
68225;SDS011;55045;49.410;11.030;2022-10-03T10:36:53;5.97;;;2.60;;
68225;SDS011;55045;49.410;11.030;2022-10-03T10:40:42;11.68;;;3.08;;
68225;SDS011;55045;49.410;11.030;2022-10-03T10:44:23;2.75;;;2.20;;
68225;SDS011;55045;49.410;11.030;2022-10-03T10:48:02;7.78;;;2.17;;
68225;SDS011;55045;49.410;11.030;2022-10-03T11:07:15;7.47;;;2.40;;
68225;SDS011;55045;49.410;11.030;2022-10-03T11:10:38;4.72;;;2.03;;
68225;SDS011;55045;49.410;11.030;2022-10-03T11:14:07;7.03;;;2.33;;
68225;SDS011;55045;49.410;11.030;2022-10-03T11:17:39;8.57;;;3.30;;
68225;SDS011;55045;49.410;11.030;2022-10-03T11:40:03;7.40;;;2.33;;
68225;SDS011;55045;49.410;11.030;2022-10-03T11:50:48;3.90;;;1.85;;
68225;SDS011;55045;49.410;11.030;2022-10-03T11:57:26;8.17;;;2.20;;
68225;SDS011;55045;49.410;11.030;2022-10-03T12:00:34;5.93;;;2.25;;
68225;SDS011;55045;49.410;11.030;2022-10-03T12:06:57;2.53;;;1.90;;
68225;SDS011;55045;49.410;11.030;2022-10-03T12:10:24;3.90;;;1.60;;
68225;SDS011;55045;49.410;11.030;2022-10-03T12:13:41;5.88;;;1.30;;
68225;SDS011;55045;49.410;11.030;2022-10-03T12:17:11;4.85;;;1.67;;
68225;SDS011;55045;49.410;11.030;2022-10-03T12:23:26;2.75;;;1.27;;
68225;SDS011;55045;49.410;11.030;2022-10-03T12:26:50;4.20;;;1.27;;
68225;SDS011;55045;49.410;11.030;2022-10-03T12:29:59;6.82;;;1.30;;
68225;SDS011;55045;49.410;11.030;2022-10-03T12:33:11;3.45;;;1.20;;
68225;SDS011;55045;49.410;11.030;2022-10-03T12:36:31;4.57;;;1.75;;
68225;SDS011;55045;49.410;11.030;2022-10-03T12:39:50;2.83;;;1.30;;
68225;SDS011;55045;49.410;11.030;2022-10-03T12:43:08;5.40;;;1.25;;
68225;SDS011;55045;49.410;11.030;2022-10-03T12:46:29;3.70;;;1.10;;
68225;SDS011;55045;49.410;11.030;2022-10-03T12:49:45;3.20;;;1.50;;
68225;SDS011;55045;49.410;11.030;2022-10-03T12:52:58;2.13;;;1.20;;
68225;SDS011;55045;49.410;11.030;2022-10-03T12:56:29;5.38;;;1.75;;
68225;SDS011;55045;49.410;11.030;2022-10-03T12:59:42;1.80;;;1.10;;
68225;SDS011;55045;49.410;11.030;2022-10-03T13:02:54;3.50;;;1.40;;
68225;SDS011;55045;49.410;11.030;2022-10-03T13:10:08;6.93;;;1.52;;
68225;SDS011;55045;49.410;11.030;2022-10-03T13:13:25;3.58;;;1.30;;
68225;SDS011;55045;49.410;11.030;2022-10-03T13:16:33;1.90;;;1.45;;
68225;SDS011;55045;49.410;11.030;2022-10-03T13:19:42;4.72;;;1.17;;
68225;SDS011;55045;49.410;11.030;2022-10-03T13:22:54;5.55;;;1.38;;
68225;SDS011;55045;49.410;11.030;2022-10-03T13:26:09;2.72;;;0.95;;
68225;SDS011;55045;49.410;11.030;2022-10-03T13:29:25;3.67;;;1.15;;
68225;SDS011;55045;49.410;11.030;2022-10-03T13:32:33;3.65;;;1.20;;
68225;SDS011;55045;49.410;11.030;2022-10-03T13:35:38;1.23;;;0.70;;
68225;SDS011;55045;49.410;11.030;2022-10-03T13:39:08;3.63;;;1.90;;
68225;SDS011;55045;49.410;11.030;2022-10-03T13:42:18;6.00;;;1.40;;
68225;SDS011;55045;49.410;11.030;2022-10-03T13:45:24;4.07;;;2.13;;
68225;SDS011;55045;49.410;11.030;2022-10-03T13:48:29;2.25;;;1.05;;
68225;SDS011;55045;49.410;11.030;2022-10-03T13:51:39;2.97;;;1.07;;
68225;SDS011;55045;49.410;11.030;2022-10-03T13:55:03;4.22;;;1.20;;
68225;SDS011;55045;49.410;11.030;2022-10-03T13:58:27;3.45;;;1.40;;
68225;SDS011;55045;49.410;11.030;2022-10-03T14:01:42;3.60;;;1.48;;
68225;SDS011;55045;49.410;11.030;2022-10-03T14:05:08;7.45;;;1.70;;
68225;SDS011;55045;49.410;11.030;2022-10-03T14:08:31;2.78;;;1.30;;
68225;SDS011;55045;49.410;11.030;2022-10-03T14:11:53;10.35;;;3.17;;
68225;SDS011;55045;49.410;11.030;2022-10-03T14:15:05;6.18;;;2.90;;
68225;SDS011;55045;49.410;11.030;2022-10-03T14:18:37;4.45;;;2.10;;
68225;SDS011;55045;49.410;11.030;2022-10-03T14:21:56;5.90;;;1.40;;
68225;SDS011;55045;49.410;11.030;2022-10-03T14:25:17;4.72;;;1.60;;
68225;SDS011;55045;49.410;11.030;2022-10-03T14:28:27;3.08;;;1.30;;
68225;SDS011;55045;49.410;11.030;2022-10-03T14:31:40;4.88;;;1.92;;
68225;SDS011;55045;49.410;11.030;2022-10-03T14:35:00;2.13;;;1.40;;
68225;SDS011;55045;49.410;11.030;2022-10-03T14:38:23;2.78;;;1.80;;
68225;SDS011;55045;49.410;11.030;2022-10-03T14:41:58;4.22;;;1.50;;
68225;SDS011;55045;49.410;11.030;2022-10-03T14:45:20;2.63;;;1.10;;
68225;SDS011;55045;49.410;11.030;2022-10-03T14:48:28;3.90;;;1.13;;
68225;SDS011;55045;49.410;11.030;2022-10-03T14:51:37;2.40;;;1.20;;
68225;SDS011;55045;49.410;11.030;2022-10-03T14:54:43;7.88;;;1.83;;
68225;SDS011;55045;49.410;11.030;2022-10-03T14:57:52;4.68;;;1.52;;
68225;SDS011;55045;49.410;11.030;2022-10-03T15:01:18;6.03;;;1.10;;
68225;SDS011;55045;49.410;11.030;2022-10-03T15:04:28;3.88;;;1.00;;
68225;SDS011;55045;49.410;11.030;2022-10-03T15:07:34;3.97;;;1.30;;
68225;SDS011;55045;49.410;11.030;2022-10-03T15:10:40;3.30;;;1.10;;
68225;SDS011;55045;49.410;11.030;2022-10-03T15:13:47;8.07;;;1.65;;
68225;SDS011;55045;49.410;11.030;2022-10-03T15:16:57;5.45;;;1.60;;
68225;SDS011;55045;49.410;11.030;2022-10-03T15:20:03;9.77;;;1.75;;
68225;SDS011;55045;49.410;11.030;2022-10-03T15:23:16;6.80;;;1.45;;
68225;SDS011;55045;49.410;11.030;2022-10-03T15:26:24;6.85;;;1.20;;
68225;SDS011;55045;49.410;11.030;2022-10-03T15:29:31;7.90;;;1.75;;
68225;SDS011;55045;49.410;11.030;2022-10-03T15:35:05;5.20;;;1.35;;
68225;SDS011;55045;49.410;11.030;2022-10-03T15:38:10;3.50;;;1.67;;
68225;SDS011;55045;49.410;11.030;2022-10-03T15:41:18;3.35;;;1.58;;
68225;SDS011;55045;49.410;11.030;2022-10-03T15:44:29;3.90;;;1.20;;
68225;SDS011;55045;49.410;11.030;2022-10-03T15:47:41;2.35;;;1.50;;
68225;SDS011;55045;49.410;11.030;2022-10-03T15:50:50;3.67;;;1.25;;
68225;SDS011;55045;49.410;11.030;2022-10-03T15:53:57;3.40;;;1.45;;
68225;SDS011;55045;49.410;11.030;2022-10-03T15:57:03;6.32;;;1.77;;
68225;SDS011;55045;49.410;11.030;2022-10-03T16:00:11;5.28;;;1.50;;
68225;SDS011;55045;49.410;11.030;2022-10-03T16:03:23;5.60;;;1.38;;
68225;SDS011;55045;49.410;11.030;2022-10-03T16:06:36;9.35;;;2.05;;
68225;SDS011;55045;49.410;11.030;2022-10-03T16:09:49;3.63;;;1.77;;
68225;SDS011;55045;49.410;11.030;2022-10-03T16:12:58;6.30;;;2.00;;
68225;SDS011;55045;49.410;11.030;2022-10-03T16:16:08;6.18;;;1.90;;
68225;SDS011;55045;49.410;11.030;2022-10-03T16:22:43;9.65;;;2.42;;
68225;SDS011;55045;49.410;11.030;2022-10-03T16:25:52;4.72;;;1.95;;
68225;SDS011;55045;49.410;11.030;2022-10-03T16:29:00;7.10;;;1.85;;
68225;SDS011;55045;49.410;11.030;2022-10-03T16:32:13;4.28;;;1.90;;
68225;SDS011;55045;49.410;11.030;2022-10-03T16:35:24;4.18;;;1.80;;
68225;SDS011;55045;49.410;11.030;2022-10-03T16:38:38;6.90;;;2.40;;
68225;SDS011;55045;49.410;11.030;2022-10-03T16:41:46;4.22;;;2.03;;
68225;SDS011;55045;49.410;11.030;2022-10-03T16:48:02;5.95;;;2.20;;
68225;SDS011;55045;49.410;11.030;2022-10-03T16:51:33;8.90;;;2.45;;
68225;SDS011;55045;49.410;11.030;2022-10-03T16:54:42;7.22;;;2.83;;
68225;SDS011;55045;49.410;11.030;2022-10-03T16:57:48;5.18;;;2.92;;
68225;SDS011;55045;49.410;11.030;2022-10-03T17:00:58;9.32;;;3.78;;
68225;SDS011;55045;49.410;11.030;2022-10-03T17:04:23;13.13;;;7.20;;
68225;SDS011;55045;49.410;11.030;2022-10-03T17:07:35;12.77;;;5.90;;
68225;SDS011;55045;49.410;11.030;2022-10-03T17:10:42;10.35;;;6.78;;
68225;SDS011;55045;49.410;11.030;2022-10-03T17:13:49;11.80;;;5.30;;
68225;SDS011;55045;49.410;11.030;2022-10-03T17:16:56;11.15;;;5.25;;
68225;SDS011;55045;49.410;11.030;2022-10-03T17:20:04;10.93;;;5.00;;
68225;SDS011;55045;49.410;11.030;2022-10-03T17:23:20;9.45;;;4.50;;
68225;SDS011;55045;49.410;11.030;2022-10-03T17:26:33;12.95;;;6.10;;
68225;SDS011;55045;49.410;11.030;2022-10-03T17:29:41;11.88;;;5.50;;
68225;SDS011;55045;49.410;11.030;2022-10-03T17:32:51;15.57;;;6.68;;
68225;SDS011;55045;49.410;11.030;2022-10-03T17:36:01;12.55;;;6.75;;
68225;SDS011;55045;49.410;11.030;2022-10-03T17:39:36;14.20;;;7.72;;
68225;SDS011;55045;49.410;11.030;2022-10-03T17:42:47;13.40;;;7.93;;
68225;SDS011;55045;49.410;11.030;2022-10-03T17:46:01;22.08;;;8.30;;
68225;SDS011;55045;49.410;11.030;2022-10-03T17:49:16;13.93;;;6.78;;
68225;SDS011;55045;49.410;11.030;2022-10-03T17:52:23;13.98;;;8.13;;
68225;SDS011;55045;49.410;11.030;2022-10-03T17:55:28;17.35;;;8.38;;
68225;SDS011;55045;49.410;11.030;2022-10-03T17:58:36;22.63;;;10.00;;
68225;SDS011;55045;49.410;11.030;2022-10-03T18:01:43;12.52;;;7.13;;
68225;SDS011;55045;49.410;11.030;2022-10-03T18:04:53;14.90;;;6.13;;
68225;SDS011;55045;49.410;11.030;2022-10-03T18:08:04;12.10;;;5.35;;
68225;SDS011;55045;49.410;11.030;2022-10-03T18:11:10;6.05;;;3.88;;
68225;SDS011;55045;49.410;11.030;2022-10-03T18:14:28;14.85;;;5.97;;
68225;SDS011;55045;49.410;11.030;2022-10-03T18:17:43;13.10;;;6.22;;
68225;SDS011;55045;49.410;11.030;2022-10-03T18:20:58;15.48;;;7.70;;
68225;SDS011;55045;49.410;11.030;2022-10-03T18:24:14;9.40;;;5.22;;
68225;SDS011;55045;49.410;11.030;2022-10-03T18:27:35;8.38;;;4.53;;
68225;SDS011;55045;49.410;11.030;2022-10-03T18:30:56;9.73;;;4.43;;
68225;SDS011;55045;49.410;11.030;2022-10-03T18:34:02;7.53;;;4.32;;
68225;SDS011;55045;49.410;11.030;2022-10-03T18:37:16;8.35;;;3.58;;
68225;SDS011;55045;49.410;11.030;2022-10-03T18:40:35;11.75;;;4.10;;
68225;SDS011;55045;49.410;11.030;2022-10-03T18:43:44;12.45;;;4.50;;
68225;SDS011;55045;49.410;11.030;2022-10-03T18:46:57;8.43;;;4.22;;
68225;SDS011;55045;49.410;11.030;2022-10-03T18:50:11;11.38;;;6.47;;
68225;SDS011;55045;49.410;11.030;2022-10-03T18:53:24;11.70;;;4.90;;
68225;SDS011;55045;49.410;11.030;2022-10-03T18:56:34;12.10;;;5.50;;
68225;SDS011;55045;49.410;11.030;2022-10-03T18:59:42;9.65;;;5.63;;
68225;SDS011;55045;49.410;11.030;2022-10-03T19:02:51;12.77;;;6.65;;
68225;SDS011;55045;49.410;11.030;2022-10-03T19:05:58;13.63;;;5.57;;
68225;SDS011;55045;49.410;11.030;2022-10-03T19:09:12;13.15;;;7.65;;
68225;SDS011;55045;49.410;11.030;2022-10-03T19:12:21;14.68;;;7.90;;
68225;SDS011;55045;49.410;11.030;2022-10-03T19:15:27;13.80;;;9.40;;
68225;SDS011;55045;49.410;11.030;2022-10-03T19:18:45;18.63;;;11.95;;
68225;SDS011;55045;49.410;11.030;2022-10-03T19:21:56;30.90;;;12.98;;
68225;SDS011;55045;49.410;11.030;2022-10-03T19:25:04;27.33;;;11.30;;
68225;SDS011;55045;49.410;11.030;2022-10-03T19:28:18;22.80;;;11.10;;
68225;SDS011;55045;49.410;11.030;2022-10-03T19:31:28;18.35;;;10.18;;
68225;SDS011;55045;49.410;11.030;2022-10-03T19:34:37;17.92;;;7.78;;
68225;SDS011;55045;49.410;11.030;2022-10-03T19:37:43;13.23;;;8.10;;
68225;SDS011;55045;49.410;11.030;2022-10-03T19:40:51;15.90;;;8.07;;
68225;SDS011;55045;49.410;11.030;2022-10-03T19:44:00;26.17;;;10.90;;
68225;SDS011;55045;49.410;11.030;2022-10-03T19:50:12;26.58;;;12.32;;
68225;SDS011;55045;49.410;11.030;2022-10-03T19:53:22;21.73;;;12.00;;
68225;SDS011;55045;49.410;11.030;2022-10-03T19:56:26;25.60;;;12.82;;
68225;SDS011;55045;49.410;11.030;2022-10-03T19:59:43;36.28;;;17.90;;
68225;SDS011;55045;49.410;11.030;2022-10-03T20:02:51;49.90;;;25.73;;
68225;SDS011;55045;49.410;11.030;2022-10-03T20:05:59;43.53;;;23.98;;
68225;SDS011;55045;49.410;11.030;2022-10-03T20:09:15;38.40;;;19.13;;
68225;SDS011;55045;49.410;11.030;2022-10-03T20:12:39;29.42;;;16.13;;
68225;SDS011;55045;49.410;11.030;2022-10-03T20:15:50;29.60;;;15.15;;
68225;SDS011;55045;49.410;11.030;2022-10-03T20:18:55;23.35;;;14.27;;
68225;SDS011;55045;49.410;11.030;2022-10-03T20:22:11;20.42;;;16.00;;
68225;SDS011;55045;49.410;11.030;2022-10-03T20:25:23;27.33;;;19.10;;
68225;SDS011;55045;49.410;11.030;2022-10-03T20:28:45;30.27;;;18.88;;
68225;SDS011;55045;49.410;11.030;2022-10-03T20:32:01;29.05;;;18.77;;
68225;SDS011;55045;49.410;11.030;2022-10-03T20:35:10;25.45;;;17.17;;
68225;SDS011;55045;49.410;11.030;2022-10-03T20:38:27;27.00;;;16.50;;
68225;SDS011;55045;49.410;11.030;2022-10-03T20:41:47;33.08;;;19.23;;
68225;SDS011;55045;49.410;11.030;2022-10-03T20:45:12;34.28;;;24.13;;
68225;SDS011;55045;49.410;11.030;2022-10-03T20:48:24;27.13;;;18.90;;
68225;SDS011;55045;49.410;11.030;2022-10-03T20:51:43;25.35;;;16.48;;
68225;SDS011;55045;49.410;11.030;2022-10-03T20:59:04;20.13;;;12.43;;
68225;SDS011;55045;49.410;11.030;2022-10-03T21:02:14;24.73;;;11.13;;
68225;SDS011;55045;49.410;11.030;2022-10-03T21:05:26;21.67;;;12.27;;
68225;SDS011;55045;49.410;11.030;2022-10-03T21:08:36;18.80;;;11.45;;
68225;SDS011;55045;49.410;11.030;2022-10-03T21:11:43;22.40;;;13.90;;
68225;SDS011;55045;49.410;11.030;2022-10-03T21:14:57;27.48;;;15.77;;
68225;SDS011;55045;49.410;11.030;2022-10-03T21:18:05;23.92;;;13.63;;
68225;SDS011;55045;49.410;11.030;2022-10-03T21:21:17;22.70;;;13.10;;
68225;SDS011;55045;49.410;11.030;2022-10-03T21:24:25;20.95;;;13.60;;
68225;SDS011;55045;49.410;11.030;2022-10-03T21:27:32;23.08;;;12.30;;
68225;SDS011;55045;49.410;11.030;2022-10-03T21:30:47;24.35;;;12.18;;
68225;SDS011;55045;49.410;11.030;2022-10-03T21:35:15;22.98;;;11.60;;
68225;SDS011;55045;49.410;11.030;2022-10-03T21:38:23;17.83;;;9.75;;
68225;SDS011;55045;49.410;11.030;2022-10-03T21:41:31;21.15;;;10.88;;
68225;SDS011;55045;49.410;11.030;2022-10-03T21:44:49;22.92;;;11.60;;
68225;SDS011;55045;49.410;11.030;2022-10-03T21:48:02;15.50;;;9.20;;
68225;SDS011;55045;49.410;11.030;2022-10-03T21:51:16;18.17;;;10.23;;
68225;SDS011;55045;49.410;11.030;2022-10-03T21:54:29;17.05;;;10.20;;
68225;SDS011;55045;49.410;11.030;2022-10-03T21:57:42;14.25;;;9.07;;
68225;SDS011;55045;49.410;11.030;2022-10-03T22:00:59;20.85;;;10.32;;
68225;SDS011;55045;49.410;11.030;2022-10-03T22:04:13;13.75;;;8.80;;
68225;SDS011;55045;49.410;11.030;2022-10-03T22:07:31;18.23;;;9.90;;
68225;SDS011;55045;49.410;11.030;2022-10-03T22:10:37;18.95;;;11.05;;
68225;SDS011;55045;49.410;11.030;2022-10-03T22:13:52;34.28;;;15.18;;
68225;SDS011;55045;49.410;11.030;2022-10-03T22:17:04;31.30;;;15.02;;
68225;SDS011;55045;49.410;11.030;2022-10-03T22:20:19;26.13;;;13.07;;
68225;SDS011;55045;49.410;11.030;2022-10-03T22:23:27;23.55;;;11.48;;
68225;SDS011;55045;49.410;11.030;2022-10-03T22:26:41;19.75;;;11.25;;
68225;SDS011;55045;49.410;11.030;2022-10-03T22:29:53;22.70;;;11.30;;
68225;SDS011;55045;49.410;11.030;2022-10-03T22:33:05;24.13;;;11.40;;
68225;SDS011;55045;49.410;11.030;2022-10-03T22:36:20;17.77;;;11.82;;
68225;SDS011;55045;49.410;11.030;2022-10-03T22:39:25;20.10;;;12.25;;
68225;SDS011;55045;49.410;11.030;2022-10-03T22:42:32;20.65;;;12.38;;
68225;SDS011;55045;49.410;11.030;2022-10-03T22:45:41;19.02;;;11.02;;
68225;SDS011;55045;49.410;11.030;2022-10-03T22:48:50;22.08;;;11.55;;
68225;SDS011;55045;49.410;11.030;2022-10-03T22:51:57;21.63;;;11.55;;
68225;SDS011;55045;49.410;11.030;2022-10-03T22:55:10;20.20;;;10.60;;
68225;SDS011;55045;49.410;11.030;2022-10-03T22:58:16;19.75;;;12.48;;